Anadarko, Texas
Current Conditions -  °F | °C
As of 9:15 AM on Thursday 18 Dec 2014 (Local Time) from KRFI Reporting Station
Overcast Overcast  
Wind Chill: 43°   Ceiling: 500
Heat Index: 46°   Visibility: 10mi
Dew Point: 45°   Wind: 5mph
Humidity: 97%   Direction: 90°E
Pressure: 30.17"   Gusts: NA
Location:  31.9447°N, 94.855°W
Report Text: KRFI 181515Z AUTO 09004KT 10SM OVC005 08/07 A3017 RMK AO2 T00750070
Loading
Personal Weather Stations






























Interactive Weather Map New forecast layout! Learn more

10-Day Weather Forecast

Advertisements
Track Severe Weather on mobile